createdAt,value
2018-10-16T00:00:02.841Z,14.3
2018-10-16T00:05:03.157Z,14.5
2018-10-16T00:10:02.835Z,14.5
2018-10-16T00:15:02.480Z,14.5
2018-10-16T00:20:03.126Z,14.5
2018-10-16T00:25:02.716Z,14.6
2018-10-16T00:30:02.400Z,14.6
2018-10-16T00:35:03.031Z,14.6
2018-10-16T00:40:02.717Z,14.5
2018-10-16T00:45:02.312Z,14.5
2018-10-16T00:50:02.940Z,14.6
2018-10-16T00:55:02.653Z,14.8
2018-10-16T01:00:03.244Z,14.8
2018-10-16T01:05:02.822Z,15.0
2018-10-16T01:10:02.714Z,15.0
2018-10-16T01:15:02.383Z,15.0
2018-10-16T01:20:03.290Z,15.0
2018-10-16T01:25:03.051Z,15.0
2018-10-16T01:30:02.695Z,15.1
2018-10-16T01:35:02.314Z,15.1
2018-10-16T01:40:03.200Z,15.5
2018-10-16T01:45:02.860Z,15.6
2018-10-16T01:50:02.508Z,15.6
2018-10-16T01:55:03.112Z,15.3
2018-10-16T02:00:02.670Z,15.3
2018-10-16T02:05:02.352Z,15.1
2018-10-16T02:10:03.020Z,15.1
2018-10-16T02:15:02.645Z,15.3
2018-10-16T02:20:02.304Z,15.1
2018-10-16T02:25:03.045Z,15.0
2018-10-16T02:30:02.694Z,14.8
2018-10-16T02:35:02.373Z,14.5
2018-10-16T02:40:03.060Z,14.3
2018-10-16T02:45:02.707Z,14.3
2018-10-16T02:50:02.301Z,14.3
2018-10-16T02:55:02.961Z,14.3
2018-10-16T03:00:03.373Z,14.3
2018-10-16T03:05:03.091Z,14.3
2018-10-16T03:10:02.741Z,14.3
2018-10-16T03:15:02.392Z,14.3
2018-10-16T03:20:03.121Z,14.1
2018-10-16T03:25:02.713Z,14.0
2018-10-16T03:30:02.371Z,14.0
2018-10-16T03:35:02.962Z,13.8
2018-10-16T03:40:02.700Z,13.8
2018-10-16T03:45:02.440Z,13.8
2018-10-16T03:50:03.099Z,14.0
2018-10-16T03:55:02.631Z,13.6
2018-10-16T04:00:03.236Z,13.6
2018-10-16T04:05:02.900Z,13.6
2018-10-16T04:10:02.556Z,13.6
2018-10-16T04:15:03.304Z,13.6
2018-10-16T04:20:02.931Z,13.6
2018-10-16T04:25:02.551Z,13.8
2018-10-16T04:30:03.209Z,13.8
2018-10-16T04:35:02.717Z,14.0
2018-10-16T04:40:02.410Z,13.6
2018-10-16T04:45:03.046Z,13.6
2018-10-16T04:50:02.694Z,13.6
2018-10-16T04:55:02.335Z,13.6
2018-10-16T05:00:02.467Z,13.6
2018-10-16T05:05:03.162Z,13.6
2018-10-16T05:10:02.781Z,13.8
2018-10-16T05:15:02.410Z,13.6
2018-10-16T05:20:02.954Z,13.6
2018-10-16T05:25:02.532Z,13.6
2018-10-16T05:30:03.216Z,13.6
2018-10-16T05:35:02.863Z,13.6
2018-10-16T05:40:02.563Z,13.6
2018-10-16T05:45:03.231Z,13.6
2018-10-16T05:50:02.870Z,13.6
2018-10-16T05:55:02.454Z,13.6
2018-10-16T06:00:03.002Z,13.6
2018-10-16T06:05:02.794Z,13.6
2018-10-16T06:10:02.633Z,13.6
2018-10-16T06:15:02.400Z,13.5
2018-10-16T06:20:03.246Z,13.5
2018-10-16T06:25:03.041Z,13.6
2018-10-16T06:30:02.799Z,13.6
2018-10-16T06:35:02.775Z,13.6
2018-10-16T06:40:02.721Z,13.6
2018-10-16T06:45:02.614Z,13.6
2018-10-16T06:50:02.383Z,14.3
2018-10-16T06:55:03.088Z,14.5
2018-10-16T07:00:03.243Z,14.5
2018-10-16T07:05:03.034Z,14.8
2018-10-16T07:10:02.713Z,14.8
2018-10-16T07:15:03.303Z,15.0
2018-10-16T07:20:02.771Z,15.1
2018-10-16T07:25:02.347Z,15.1
2018-10-16T07:30:03.038Z,15.1
2018-10-16T07:35:03.215Z,15.3
2018-10-16T07:40:02.982Z,15.6
2018-10-16T07:45:02.658Z,15.6
2018-10-16T07:50:02.674Z,15.5
2018-10-16T07:55:03.269Z,15.5
2018-10-16T08:00:02.808Z,15.6
2018-10-16T08:05:02.452Z,15.8
2018-10-16T08:10:03.280Z,16.0
2018-10-16T08:15:02.831Z,16.2
2018-10-16T08:20:02.411Z,16.7
2018-10-16T08:25:03.000Z,17.0
2018-10-16T08:30:02.784Z,17.8
2018-10-16T08:35:02.974Z,19.0
2018-10-16T08:40:02.726Z,19.1
2018-10-16T08:45:02.425Z,20.1
2018-10-16T08:50:03.092Z,20.3
2018-10-16T08:55:02.962Z,19.7
2018-10-16T09:00:02.565Z,19.2
2018-10-16T09:05:03.215Z,19.2
2018-10-16T09:10:02.859Z,19.1
2018-10-16T09:15:02.398Z,19.1
2018-10-16T09:20:02.954Z,19.0
2018-10-16T09:25:02.690Z,19.3
2018-10-16T09:30:03.115Z,20.0
2018-10-16T09:35:02.782Z,20.0
2018-10-16T09:40:02.441Z,20.2
2018-10-16T09:45:03.014Z,20.0
2018-10-16T09:50:02.560Z,20.2
2018-10-16T09:55:03.189Z,20.2
2018-10-16T10:00:02.790Z,20.7
2018-10-16T10:05:02.428Z,20.7
2018-10-16T10:10:03.235Z,20.7
2018-10-16T10:15:02.834Z,20.8
2018-10-16T10:20:02.477Z,21.2
2018-10-16T10:25:03.142Z,21.6
2018-10-16T10:30:03.073Z,21.7
2018-10-16T10:35:02.865Z,22.5
2018-10-16T10:40:02.916Z,22.0
2018-10-16T10:45:02.555Z,22.2
2018-10-16T10:50:03.344Z,23.2
2018-10-16T10:55:02.317Z,23.7
2018-10-16T11:00:02.881Z,24.6
2018-10-16T11:05:02.550Z,24.7
2018-10-16T11:10:03.205Z,25.5
2018-10-16T11:15:02.902Z,24.2
2018-10-16T11:20:03.070Z,23.3
2018-10-16T11:25:02.709Z,24.2
2018-10-16T11:30:02.458Z,23.7
2018-10-16T11:35:02.596Z,23.7
2018-10-16T11:40:02.332Z,24.0
2018-10-16T11:45:03.127Z,24.2
2018-10-16T11:50:03.269Z,24.6
2018-10-16T11:55:02.408Z,24.6
2018-10-16T12:00:03.004Z,24.6
2018-10-16T12:05:02.580Z,25.5
2018-10-16T12:10:02.323Z,24.6
2018-10-16T12:15:02.855Z,25.2
2018-10-16T12:20:02.549Z,25.3
2018-10-16T12:25:02.904Z,25.1
2018-10-16T12:30:02.979Z,24.2
2018-10-16T12:35:02.607Z,23.6
2018-10-16T12:40:02.521Z,23.6
2018-10-16T12:45:02.652Z,23.7
2018-10-16T12:50:02.962Z,25.1
2018-10-16T12:55:02.677Z,25.2
2018-10-16T13:00:02.455Z,25.7
2018-10-16T13:05:02.618Z,25.6
2018-10-16T13:10:02.937Z,25.8
2018-10-16T13:15:02.479Z,26.0
2018-10-16T13:20:03.153Z,26.5
2018-10-16T13:25:03.236Z,26.1
2018-10-16T13:30:03.020Z,26.5
2018-10-16T13:35:02.427Z,26.2
2018-10-16T13:40:02.739Z,26.2
2018-10-16T13:45:02.977Z,26.2
2018-10-16T13:50:02.574Z,25.8
2018-10-16T13:55:02.772Z,26.2
2018-10-16T14:00:02.465Z,25.5
2018-10-16T14:05:03.250Z,26.2
2018-10-16T14:10:02.851Z,25.3
2018-10-16T14:15:02.942Z,25.2
2018-10-16T14:20:02.607Z,25.8
2018-10-16T14:25:02.605Z,25.6
2018-10-16T14:30:03.189Z,26.5
2018-10-16T14:35:02.846Z,27.1
2018-10-16T14:40:02.600Z,26.1
2018-10-16T14:45:02.840Z,25.7
2018-10-16T14:50:02.480Z,25.3
2018-10-16T14:55:02.563Z,25.2
2018-10-16T15:00:03.169Z,25.1
2018-10-16T15:05:02.849Z,25.0
2018-10-16T15:10:02.699Z,25.1
2018-10-16T15:15:02.621Z,25.3
2018-10-16T15:20:03.333Z,24.8
2018-10-16T15:25:02.350Z,25.2
2018-10-16T15:30:02.866Z,25.5
2018-10-16T15:35:02.701Z,25.3
2018-10-16T15:40:02.451Z,24.2
2018-10-16T15:45:02.694Z,23.7
2018-10-16T15:50:02.404Z,23.3
2018-10-16T15:55:02.684Z,23.1
2018-10-16T16:00:02.341Z,23.0
2018-10-16T16:05:02.648Z,22.7
2018-10-16T16:10:02.392Z,22.5
2018-10-16T16:15:02.596Z,22.0
2018-10-16T16:20:03.294Z,22.0
2018-10-16T16:25:02.708Z,21.6
2018-10-16T16:30:02.381Z,21.6
2018-10-16T16:35:02.888Z,21.3
2018-10-16T16:40:03.055Z,21.0
2018-10-16T16:45:03.212Z,20.7
2018-10-16T16:50:02.953Z,20.6
2018-10-16T16:55:03.041Z,20.2
2018-10-16T17:00:02.700Z,20.2
2018-10-16T17:05:02.286Z,20.2
2018-10-16T17:10:03.102Z,20.1
2018-10-16T17:15:03.174Z,19.7
2018-10-16T17:20:02.806Z,19.5
2018-10-16T17:25:03.079Z,19.2
2018-10-16T17:30:03.086Z,19.1
2018-10-16T17:35:02.714Z,18.8
2018-10-16T17:40:02.306Z,18.6
2018-10-16T17:45:03.004Z,18.5
2018-10-16T17:50:03.038Z,18.1
2018-10-16T17:55:02.642Z,17.8
2018-10-16T18:00:03.230Z,17.7
2018-10-16T18:05:02.893Z,17.3
2018-10-16T18:10:02.535Z,17.2
2018-10-16T18:15:03.281Z,17.1
2018-10-16T18:20:02.312Z,17.1
2018-10-16T18:25:02.908Z,16.7
2018-10-16T18:30:02.599Z,16.6
2018-10-16T18:35:03.206Z,16.3
2018-10-16T18:40:02.950Z,16.2
2018-10-16T18:45:02.356Z,16.2
2018-10-16T18:50:02.534Z,16.2
2018-10-16T18:55:03.179Z,16.2
2018-10-16T19:00:02.738Z,16.2
2018-10-16T19:05:02.376Z,16.6
2018-10-16T19:10:03.131Z,16.6
2018-10-16T19:15:02.801Z,16.3
2018-10-16T19:20:03.182Z,16.6
2018-10-16T19:25:02.261Z,16.6
2018-10-16T19:30:02.841Z,16.2
2018-10-16T19:35:02.496Z,16.2
2018-10-16T19:40:03.166Z,16.2
2018-10-16T19:45:02.813Z,16.2
2018-10-16T19:50:03.006Z,16.2
2018-10-16T19:55:02.599Z,16.2
2018-10-16T20:00:03.375Z,16.2
2018-10-16T20:05:03.234Z,16.2
2018-10-16T20:10:02.847Z,16.2
2018-10-16T20:15:02.506Z,16.0
2018-10-16T20:20:03.167Z,15.8
2018-10-16T20:25:02.800Z,15.8
2018-10-16T20:30:02.758Z,15.8
2018-10-16T20:35:02.352Z,15.8
2018-10-16T20:40:03.132Z,15.8
2018-10-16T20:45:02.765Z,15.6
2018-10-16T20:50:02.558Z,15.6
2018-10-16T20:55:03.265Z,15.8
2018-10-16T21:00:03.205Z,16.0
2018-10-16T21:05:03.053Z,15.8
2018-10-16T21:10:02.984Z,15.8
2018-10-16T21:15:02.524Z,15.8
2018-10-16T21:20:03.139Z,15.6
2018-10-16T21:25:02.947Z,15.5
2018-10-16T21:30:03.189Z,15.6
2018-10-16T21:35:02.890Z,15.5
2018-10-16T21:40:02.803Z,15.5
2018-10-16T21:45:02.320Z,15.3
2018-10-16T21:50:02.848Z,15.3
2018-10-16T21:55:02.553Z,15.3
2018-10-16T22:00:02.604Z,15.1
2018-10-16T22:05:03.255Z,15.1
2018-10-16T22:10:02.455Z,15.1
2018-10-16T22:15:03.173Z,15.1
2018-10-16T22:20:03.052Z,15.0
2018-10-16T22:25:02.789Z,15.0
2018-10-16T22:30:02.984Z,15.1
2018-10-16T22:35:02.659Z,15.1
2018-10-16T22:40:02.998Z,15.1
2018-10-16T22:45:02.537Z,15.1
2018-10-16T22:50:03.187Z,15.0
2018-10-16T22:55:02.801Z,15.1
2018-10-16T23:00:02.871Z,15.1
2018-10-16T23:05:02.445Z,15.0
2018-10-16T23:10:02.646Z,15.0
2018-10-16T23:15:03.241Z,15.1
2018-10-16T23:20:02.806Z,15.5
2018-10-16T23:25:02.503Z,15.8
2018-10-16T23:30:02.690Z,15.6
2018-10-16T23:35:02.383Z,15.6
2018-10-16T23:40:02.620Z,15.6
2018-10-16T23:45:03.223Z,15.6
2018-10-16T23:50:02.776Z,15.8
2018-10-16T23:55:02.504Z,15.8
